sensor_id;sensor_type;location;lat;lon;timestamp;noise_LAeq;noise_LA_min;noise_LA_max;noise_LA01;noise_LA95
64077;Laerm;51039;49.696;10.808;2023-04-03T00:01:20;44.98;43.13;48.92;;
64077;Laerm;51039;49.696;10.808;2023-04-03T00:03:45;44.95;43.23;50.95;;
64077;Laerm;51039;49.696;10.808;2023-04-03T00:06:11;44.91;43.31;48.76;;
64077;Laerm;51039;49.696;10.808;2023-04-03T00:08:38;44.89;43.36;49.18;;
64077;Laerm;51039;49.696;10.808;2023-04-03T00:11:05;45.11;43.35;50.84;;
64077;Laerm;51039;49.696;10.808;2023-04-03T00:13:31;45.06;43.01;49.15;;
64077;Laerm;51039;49.696;10.808;2023-04-03T00:15:57;45.03;43.13;50.49;;
64077;Laerm;51039;49.696;10.808;2023-04-03T00:18:22;45.05;43.37;50.58;;
64077;Laerm;51039;49.696;10.808;2023-04-03T00:20:48;45.05;43.50;47.73;;
64077;Laerm;51039;49.696;10.808;2023-04-03T00:23:14;45.22;43.46;49.54;;
64077;Laerm;51039;49.696;10.808;2023-04-03T00:25:40;45.30;43.20;50.92;;
64077;Laerm;51039;49.696;10.808;2023-04-03T00:28:05;45.05;43.42;52.08;;
64077;Laerm;51039;49.696;10.808;2023-04-03T00:30:31;45.34;43.31;50.89;;
64077;Laerm;51039;49.696;10.808;2023-04-03T00:32:56;45.19;43.23;51.10;;
64077;Laerm;51039;49.696;10.808;2023-04-03T00:35:22;45.63;43.29;52.55;;
64077;Laerm;51039;49.696;10.808;2023-04-03T00:37:50;45.89;43.49;51.35;;
64077;Laerm;51039;49.696;10.808;2023-04-03T00:40:16;45.31;43.36;50.29;;
64077;Laerm;51039;49.696;10.808;2023-04-03T00:42:43;45.34;43.35;50.74;;
64077;Laerm;51039;49.696;10.808;2023-04-03T00:47:36;45.10;43.54;49.81;;
64077;Laerm;51039;49.696;10.808;2023-04-03T00:50:01;45.05;43.42;48.91;;
64077;Laerm;51039;49.696;10.808;2023-04-03T00:52:29;45.05;43.69;49.33;;
64077;Laerm;51039;49.696;10.808;2023-04-03T00:55:01;45.09;43.38;49.74;;
64077;Laerm;51039;49.696;10.808;2023-04-03T00:57:29;45.22;43.63;53.24;;
64077;Laerm;51039;49.696;10.808;2023-04-03T01:00:00;45.85;43.59;56.48;;
64077;Laerm;51039;49.696;10.808;2023-04-03T01:02:26;46.47;43.61;57.01;;
64077;Laerm;51039;49.696;10.808;2023-04-03T01:04:52;45.63;43.59;54.97;;
64077;Laerm;51039;49.696;10.808;2023-04-03T01:07:23;45.29;43.25;52.95;;
64077;Laerm;51039;49.696;10.808;2023-04-03T01:09:53;45.88;42.97;56.25;;
64077;Laerm;51039;49.696;10.808;2023-04-03T01:12:27;45.85;43.32;55.64;;
64077;Laerm;51039;49.696;10.808;2023-04-03T01:14:55;44.81;43.51;50.44;;
64077;Laerm;51039;49.696;10.808;2023-04-03T01:20:15;45.47;43.34;60.51;;
64077;Laerm;51039;49.696;10.808;2023-04-03T01:25:45;48.28;43.78;57.30;;
64077;Laerm;51039;49.696;10.808;2023-04-03T01:28:18;46.58;43.67;56.25;;
64077;Laerm;51039;49.696;10.808;2023-04-03T01:33:27;47.27;43.49;59.57;;
64077;Laerm;51039;49.696;10.808;2023-04-03T01:35:52;47.49;43.73;59.69;;
64077;Laerm;51039;49.696;10.808;2023-04-03T01:38:17;47.71;43.47;60.02;;
64077;Laerm;51039;49.696;10.808;2023-04-03T01:40:43;47.27;43.72;59.81;;
64077;Laerm;51039;49.696;10.808;2023-04-03T01:43:08;47.11;43.86;64.67;;
64077;Laerm;51039;49.696;10.808;2023-04-03T01:45:33;47.53;43.74;61.12;;
64077;Laerm;51039;49.696;10.808;2023-04-03T01:47:59;45.91;43.73;49.73;;
64077;Laerm;51039;49.696;10.808;2023-04-03T01:50:24;45.81;43.72;49.55;;
64077;Laerm;51039;49.696;10.808;2023-04-03T01:52:50;46.66;43.68;56.01;;
64077;Laerm;51039;49.696;10.808;2023-04-03T01:55:15;45.66;43.90;50.36;;
64077;Laerm;51039;49.696;10.808;2023-04-03T01:57:40;45.73;43.82;53.05;;
64077;Laerm;51039;49.696;10.808;2023-04-03T02:00:06;46.08;44.11;51.67;;
64077;Laerm;51039;49.696;10.808;2023-04-03T02:02:33;46.38;43.85;52.42;;
64077;Laerm;51039;49.696;10.808;2023-04-03T02:04:58;46.35;43.79;52.10;;
64077;Laerm;51039;49.696;10.808;2023-04-03T02:07:23;46.22;43.96;50.99;;
64077;Laerm;51039;49.696;10.808;2023-04-03T02:09:49;46.32;43.84;51.61;;
64077;Laerm;51039;49.696;10.808;2023-04-03T02:12:14;46.33;44.13;50.72;;
64077;Laerm;51039;49.696;10.808;2023-04-03T02:14:39;46.24;43.91;51.63;;
64077;Laerm;51039;49.696;10.808;2023-04-03T02:17:05;45.55;43.88;49.35;;
64077;Laerm;51039;49.696;10.808;2023-04-03T02:19:33;45.42;43.60;48.63;;
64077;Laerm;51039;49.696;10.808;2023-04-03T02:21:59;45.38;43.79;53.59;;
64077;Laerm;51039;49.696;10.808;2023-04-03T02:24:24;45.20;43.48;48.60;;
64077;Laerm;51039;49.696;10.808;2023-04-03T02:26:50;45.25;43.78;48.64;;
64077;Laerm;51039;49.696;10.808;2023-04-03T02:29:15;45.32;43.68;52.15;;
64077;Laerm;51039;49.696;10.808;2023-04-03T02:31:40;46.27;44.00;53.79;;
64077;Laerm;51039;49.696;10.808;2023-04-03T02:34:07;46.12;43.95;52.72;;
64077;Laerm;51039;49.696;10.808;2023-04-03T02:36:32;45.82;44.06;53.41;;
64077;Laerm;51039;49.696;10.808;2023-04-03T02:38:58;45.99;43.68;50.83;;
64077;Laerm;51039;49.696;10.808;2023-04-03T02:41:23;47.26;43.56;60.06;;
64077;Laerm;51039;49.696;10.808;2023-04-03T02:43:50;46.73;44.10;54.01;;
64077;Laerm;51039;49.696;10.808;2023-04-03T02:46:15;46.26;44.00;57.03;;
64077;Laerm;51039;49.696;10.808;2023-04-03T02:48:41;46.11;43.93;50.71;;
64077;Laerm;51039;49.696;10.808;2023-04-03T02:51:06;46.11;43.92;53.01;;
64077;Laerm;51039;49.696;10.808;2023-04-03T02:53:31;45.43;43.69;50.77;;
64077;Laerm;51039;49.696;10.808;2023-04-03T02:55:57;45.56;43.89;50.13;;
64077;Laerm;51039;49.696;10.808;2023-04-03T02:58:22;45.59;43.92;48.24;;
64077;Laerm;51039;49.696;10.808;2023-04-03T03:00:47;45.34;43.84;48.03;;
64077;Laerm;51039;49.696;10.808;2023-04-03T03:03:12;45.30;43.52;48.39;;
64077;Laerm;51039;49.696;10.808;2023-04-03T03:05:39;45.46;43.79;48.21;;
64077;Laerm;51039;49.696;10.808;2023-04-03T03:08:04;45.25;43.74;47.36;;
64077;Laerm;51039;49.696;10.808;2023-04-03T03:10:29;45.59;43.73;52.15;;
64077;Laerm;51039;49.696;10.808;2023-04-03T03:12:55;45.13;43.53;47.74;;
64077;Laerm;51039;49.696;10.808;2023-04-03T03:15:20;45.24;43.82;48.26;;
64077;Laerm;51039;49.696;10.808;2023-04-03T03:17:46;45.25;43.75;48.70;;
64077;Laerm;51039;49.696;10.808;2023-04-03T03:20:12;45.28;43.74;52.80;;
64077;Laerm;51039;49.696;10.808;2023-04-03T03:22:39;45.18;43.55;50.84;;
64077;Laerm;51039;49.696;10.808;2023-04-03T03:25:04;45.18;43.68;49.65;;
64077;Laerm;51039;49.696;10.808;2023-04-03T03:27:31;45.63;43.94;50.26;;
64077;Laerm;51039;49.696;10.808;2023-04-03T03:29:56;45.41;43.77;58.42;;
64077;Laerm;51039;49.696;10.808;2023-04-03T03:32:21;45.57;43.87;52.07;;
64077;Laerm;51039;49.696;10.808;2023-04-03T03:34:47;45.27;43.77;48.43;;
64077;Laerm;51039;49.696;10.808;2023-04-03T03:37:12;45.27;43.72;48.78;;
64077;Laerm;51039;49.696;10.808;2023-04-03T03:39:37;45.58;43.82;49.96;;
64077;Laerm;51039;49.696;10.808;2023-04-03T03:42:02;45.38;43.54;49.91;;
64077;Laerm;51039;49.696;10.808;2023-04-03T03:44:28;45.46;43.89;48.51;;
64077;Laerm;51039;49.696;10.808;2023-04-03T03:46:56;45.68;43.78;53.44;;
64077;Laerm;51039;49.696;10.808;2023-04-03T03:49:22;45.37;43.55;49.02;;
64077;Laerm;51039;49.696;10.808;2023-04-03T03:51:47;45.50;43.67;48.67;;
64077;Laerm;51039;49.696;10.808;2023-04-03T03:54:13;46.04;43.66;51.17;;
64077;Laerm;51039;49.696;10.808;2023-04-03T03:56:38;45.94;43.85;55.25;;
64077;Laerm;51039;49.696;10.808;2023-04-03T03:59:04;45.00;43.43;49.89;;
64077;Laerm;51039;49.696;10.808;2023-04-03T04:01:29;44.96;43.36;47.02;;
64077;Laerm;51039;49.696;10.808;2023-04-03T04:03:55;45.10;43.40;64.07;;
64077;Laerm;51039;49.696;10.808;2023-04-03T04:06:21;45.67;43.66;52.05;;
64077;Laerm;51039;49.696;10.808;2023-04-03T04:08:46;45.43;43.66;50.56;;
64077;Laerm;51039;49.696;10.808;2023-04-03T04:11:12;45.53;44.01;49.04;;
64077;Laerm;51039;49.696;10.808;2023-04-03T04:13:37;45.30;43.98;47.23;;
64077;Laerm;51039;49.696;10.808;2023-04-03T04:16:02;45.33;43.57;49.23;;
64077;Laerm;51039;49.696;10.808;2023-04-03T04:18:28;45.39;43.97;48.77;;
64077;Laerm;51039;49.696;10.808;2023-04-03T04:20:53;45.41;43.85;48.28;;
64077;Laerm;51039;49.696;10.808;2023-04-03T04:23:19;45.30;43.46;50.13;;
64077;Laerm;51039;49.696;10.808;2023-04-03T04:25:48;45.19;43.83;48.92;;
64077;Laerm;51039;49.696;10.808;2023-04-03T04:28:14;45.06;43.47;47.67;;
64077;Laerm;51039;49.696;10.808;2023-04-03T04:30:40;44.97;43.47;47.30;;
64077;Laerm;51039;49.696;10.808;2023-04-03T04:33:05;44.82;43.57;47.41;;
64077;Laerm;51039;49.696;10.808;2023-04-03T04:35:32;44.96;43.57;46.76;;
64077;Laerm;51039;49.696;10.808;2023-04-03T04:37:57;44.82;43.21;46.11;;
64077;Laerm;51039;49.696;10.808;2023-04-03T04:40:23;44.76;43.41;46.93;;
64077;Laerm;51039;49.696;10.808;2023-04-03T04:42:48;45.38;43.46;50.82;;
64077;Laerm;51039;49.696;10.808;2023-04-03T04:45:13;44.76;43.33;57.49;;
64077;Laerm;51039;49.696;10.808;2023-04-03T04:47:40;44.68;43.12;49.19;;
64077;Laerm;51039;49.696;10.808;2023-04-03T04:50:05;44.56;43.13;46.14;;
64077;Laerm;51039;49.696;10.808;2023-04-03T04:52:31;45.12;43.44;49.55;;
64077;Laerm;51039;49.696;10.808;2023-04-03T04:54:56;45.14;43.35;47.35;;
64077;Laerm;51039;49.696;10.808;2023-04-03T04:57:22;44.97;43.50;48.57;;
64077;Laerm;51039;49.696;10.808;2023-04-03T04:59:47;45.02;43.61;47.25;;
64077;Laerm;51039;49.696;10.808;2023-04-03T05:02:12;45.30;43.09;56.38;;
64077;Laerm;51039;49.696;10.808;2023-04-03T05:04:37;44.66;43.21;49.77;;
64077;Laerm;51039;49.696;10.808;2023-04-03T05:07:03;44.63;43.05;47.33;;
64077;Laerm;51039;49.696;10.808;2023-04-03T05:09:28;44.65;43.39;61.94;;
64077;Laerm;51039;49.696;10.808;2023-04-03T05:11:53;44.64;43.37;56.60;;
64077;Laerm;51039;49.696;10.808;2023-04-03T05:14:19;44.61;43.12;47.50;;
64077;Laerm;51039;49.696;10.808;2023-04-03T05:16:45;44.69;43.25;46.58;;
64077;Laerm;51039;49.696;10.808;2023-04-03T05:19:10;44.84;43.30;48.36;;
64077;Laerm;51039;49.696;10.808;2023-04-03T05:21:36;44.76;43.29;48.16;;
64077;Laerm;51039;49.696;10.808;2023-04-03T05:24:01;45.65;43.46;52.47;;
64077;Laerm;51039;49.696;10.808;2023-04-03T05:26:31;46.21;43.60;52.29;;
64077;Laerm;51039;49.696;10.808;2023-04-03T05:28:56;46.07;43.69;54.52;;
64077;Laerm;51039;49.696;10.808;2023-04-03T05:31:22;45.92;43.48;55.15;;
64077;Laerm;51039;49.696;10.808;2023-04-03T05:33:48;46.81;43.32;56.33;;
64077;Laerm;51039;49.696;10.808;2023-04-03T05:36:13;47.38;43.45;59.72;;
64077;Laerm;51039;49.696;10.808;2023-04-03T05:38:39;45.02;43.49;56.64;;
64077;Laerm;51039;49.696;10.808;2023-04-03T05:41:05;44.63;42.96;45.97;;
64077;Laerm;51039;49.696;10.808;2023-04-03T05:43:30;44.56;43.17;45.90;;
64077;Laerm;51039;49.696;10.808;2023-04-03T05:45:56;44.54;42.95;46.19;;
64077;Laerm;51039;49.696;10.808;2023-04-03T05:48:21;44.61;43.33;46.11;;
64077;Laerm;51039;49.696;10.808;2023-04-03T05:50:47;44.60;43.33;45.86;;
64077;Laerm;51039;49.696;10.808;2023-04-03T05:53:17;44.60;43.25;45.94;;
64077;Laerm;51039;49.696;10.808;2023-04-03T05:55:44;44.96;43.36;47.84;;
64077;Laerm;51039;49.696;10.808;2023-04-03T05:58:10;45.01;43.48;47.63;;
64077;Laerm;51039;49.696;10.808;2023-04-03T06:00:35;44.78;43.38;49.03;;
64077;Laerm;51039;49.696;10.808;2023-04-03T06:03:01;44.67;43.51;47.39;;
64077;Laerm;51039;49.696;10.808;2023-04-03T06:05:26;44.81;43.49;48.04;;
64077;Laerm;51039;49.696;10.808;2023-04-03T06:07:51;44.75;43.44;47.49;;
64077;Laerm;51039;49.696;10.808;2023-04-03T06:10:17;44.76;43.53;47.44;;
64077;Laerm;51039;49.696;10.808;2023-04-03T06:12:42;44.75;43.41;45.95;;
64077;Laerm;51039;49.696;10.808;2023-04-03T06:15:08;44.83;43.70;46.81;;
64077;Laerm;51039;49.696;10.808;2023-04-03T06:17:35;45.00;43.21;46.59;;
64077;Laerm;51039;49.696;10.808;2023-04-03T06:20:01;44.95;43.63;46.84;;
64077;Laerm;51039;49.696;10.808;2023-04-03T06:22:27;44.89;43.50;46.19;;
64077;Laerm;51039;49.696;10.808;2023-04-03T06:24:52;44.89;43.39;47.54;;
64077;Laerm;51039;49.696;10.808;2023-04-03T06:27:18;44.84;43.68;47.78;;
64077;Laerm;51039;49.696;10.808;2023-04-03T06:29:43;44.79;43.31;46.86;;
64077;Laerm;51039;49.696;10.808;2023-04-03T06:32:10;44.89;43.69;47.58;;
64077;Laerm;51039;49.696;10.808;2023-04-03T06:34:35;44.95;43.16;48.95;;
64077;Laerm;51039;49.696;10.808;2023-04-03T06:37:01;45.01;43.63;50.82;;
64077;Laerm;51039;49.696;10.808;2023-04-03T06:39:26;45.46;43.37;55.21;;
64077;Laerm;51039;49.696;10.808;2023-04-03T06:41:52;45.25;43.55;56.08;;
64077;Laerm;51039;49.696;10.808;2023-04-03T06:44:18;45.71;43.24;56.46;;
64077;Laerm;51039;49.696;10.808;2023-04-03T06:46:44;46.17;43.50;59.58;;
64077;Laerm;51039;49.696;10.808;2023-04-03T06:49:10;46.58;43.51;60.56;;
64077;Laerm;51039;49.696;10.808;2023-04-03T06:51:36;46.31;43.56;56.78;;
64077;Laerm;51039;49.696;10.808;2023-04-03T06:54:02;45.53;43.58;55.30;;
64077;Laerm;51039;49.696;10.808;2023-04-03T06:56:28;45.58;43.61;55.38;;
64077;Laerm;51039;49.696;10.808;2023-04-03T06:58:55;45.33;43.34;50.32;;
64077;Laerm;51039;49.696;10.808;2023-04-03T07:01:23;45.40;43.25;56.67;;
64077;Laerm;51039;49.696;10.808;2023-04-03T07:03:48;44.98;43.40;57.42;;
64077;Laerm;51039;49.696;10.808;2023-04-03T07:06:15;45.25;43.35;54.36;;
64077;Laerm;51039;49.696;10.808;2023-04-03T07:08:41;45.28;43.32;58.65;;
64077;Laerm;51039;49.696;10.808;2023-04-03T07:11:08;45.17;43.14;57.46;;
64077;Laerm;51039;49.696;10.808;2023-04-03T07:13:33;44.93;43.31;53.46;;
64077;Laerm;51039;49.696;10.808;2023-04-03T07:16:01;44.79;42.94;53.31;;
64077;Laerm;51039;49.696;10.808;2023-04-03T07:18:26;44.65;43.27;52.03;;
64077;Laerm;51039;49.696;10.808;2023-04-03T07:20:52;44.53;43.17;48.27;;
64077;Laerm;51039;49.696;10.808;2023-04-03T07:23:18;44.67;42.90;52.72;;
64077;Laerm;51039;49.696;10.808;2023-04-03T07:25:45;44.83;43.24;55.43;;
64077;Laerm;51039;49.696;10.808;2023-04-03T07:28:11;44.98;43.30;56.83;;
64077;Laerm;51039;49.696;10.808;2023-04-03T07:30:43;44.67;43.11;56.74;;
64077;Laerm;51039;49.696;10.808;2023-04-03T07:33:08;44.73;43.16;56.30;;
64077;Laerm;51039;49.696;10.808;2023-04-03T07:35:33;44.77;43.29;52.77;;
64077;Laerm;51039;49.696;10.808;2023-04-03T07:37:59;44.82;43.23;57.14;;
64077;Laerm;51039;49.696;10.808;2023-04-03T07:40:24;44.78;43.00;54.19;;
64077;Laerm;51039;49.696;10.808;2023-04-03T07:42:50;44.68;43.23;52.57;;
64077;Laerm;51039;49.696;10.808;2023-04-03T07:45:16;44.52;43.19;51.11;;
64077;Laerm;51039;49.696;10.808;2023-04-03T07:47:42;44.59;42.82;53.65;;
64077;Laerm;51039;49.696;10.808;2023-04-03T07:50:08;44.57;43.01;48.29;;
64077;Laerm;51039;49.696;10.808;2023-04-03T07:52:33;44.72;43.06;56.29;;
64077;Laerm;51039;49.696;10.808;2023-04-03T07:54:58;44.44;43.10;52.96;;
64077;Laerm;51039;49.696;10.808;2023-04-03T07:57:24;44.97;43.00;55.80;;
64077;Laerm;51039;49.696;10.808;2023-04-03T07:59:49;44.41;42.99;52.35;;
64077;Laerm;51039;49.696;10.808;2023-04-03T08:02:15;44.38;43.02;55.26;;
64077;Laerm;51039;49.696;10.808;2023-04-03T08:04:40;44.21;42.77;49.50;;
64077;Laerm;51039;49.696;10.808;2023-04-03T08:07:06;44.44;42.71;59.50;;
64077;Laerm;51039;49.696;10.808;2023-04-03T08:09:31;44.08;42.59;57.13;;
64077;Laerm;51039;49.696;10.808;2023-04-03T08:11:57;44.65;42.60;58.94;;
64077;Laerm;51039;49.696;10.808;2023-04-03T08:14:22;44.22;42.34;61.63;;
64077;Laerm;51039;49.696;10.808;2023-04-03T08:16:47;44.27;42.25;55.71;;
64077;Laerm;51039;49.696;10.808;2023-04-03T08:19:14;44.34;42.30;59.70;;
64077;Laerm;51039;49.696;10.808;2023-04-03T08:21:41;44.26;42.13;60.67;;
64077;Laerm;51039;49.696;10.808;2023-04-03T08:24:07;43.93;42.18;56.47;;
64077;Laerm;51039;49.696;10.808;2023-04-03T08:26:32;43.67;41.92;50.85;;
64077;Laerm;51039;49.696;10.808;2023-04-03T08:28:58;43.92;42.05;56.83;;
64077;Laerm;51039;49.696;10.808;2023-04-03T08:31:23;43.58;42.13;52.26;;
64077;Laerm;51039;49.696;10.808;2023-04-03T08:33:49;44.05;42.09;61.81;;
64077;Laerm;51039;49.696;10.808;2023-04-03T08:36:24;45.09;41.99;60.43;;
64077;Laerm;51039;49.696;10.808;2023-04-03T08:38:52;44.61;41.84;62.59;;
64077;Laerm;51039;49.696;10.808;2023-04-03T08:41:37;43.91;41.71;54.00;;
64077;Laerm;51039;49.696;10.808;2023-04-03T08:49:26;44.54;41.69;58.94;;
64077;Laerm;51039;49.696;10.808;2023-04-03T08:51:54;43.41;41.29;53.90;;
64077;Laerm;51039;49.696;10.808;2023-04-03T08:54:33;43.54;41.66;56.98;;
64077;Laerm;51039;49.696;10.808;2023-04-03T08:57:02;43.32;41.47;51.72;;
64077;Laerm;51039;49.696;10.808;2023-04-03T08:59:33;44.06;41.53;57.93;;
64077;Laerm;51039;49.696;10.808;2023-04-03T09:02:02;43.09;41.29;50.61;;
64077;Laerm;51039;49.696;10.808;2023-04-03T09:04:31;44.54;41.48;60.83;;
64077;Laerm;51039;49.696;10.808;2023-04-03T09:07:03;43.96;41.37;58.93;;
64077;Laerm;51039;49.696;10.808;2023-04-03T09:09:36;43.59;41.10;58.79;;
64077;Laerm;51039;49.696;10.808;2023-04-03T09:12:21;43.62;41.33;61.19;;
64077;Laerm;51039;49.696;10.808;2023-04-03T09:17:53;42.91;41.20;53.08;;
64077;Laerm;51039;49.696;10.808;2023-04-03T09:23:21;45.13;41.26;61.29;;
64077;Laerm;51039;49.696;10.808;2023-04-03T09:25:50;44.15;41.14;60.73;;
64077;Laerm;51039;49.696;10.808;2023-04-03T09:28:16;42.92;40.88;56.26;;
64077;Laerm;51039;49.696;10.808;2023-04-03T09:30:41;42.79;40.95;57.19;;
64077;Laerm;51039;49.696;10.808;2023-04-03T09:33:08;42.67;40.73;53.54;;
64077;Laerm;51039;49.696;10.808;2023-04-03T09:35:36;42.91;41.28;63.01;;
64077;Laerm;51039;49.696;10.808;2023-04-03T09:40:38;42.67;40.92;55.58;;
64077;Laerm;51039;49.696;10.808;2023-04-03T09:43:28;42.84;40.41;61.36;;
64077;Laerm;51039;49.696;10.808;2023-04-03T09:45:54;42.50;40.71;57.75;;
64077;Laerm;51039;49.696;10.808;2023-04-03T09:48:23;42.76;40.70;51.91;;
64077;Laerm;51039;49.696;10.808;2023-04-03T09:55:57;42.57;40.97;64.17;;
64077;Laerm;51039;49.696;10.808;2023-04-03T09:59:06;42.31;40.77;52.71;;
64077;Laerm;51039;49.696;10.808;2023-04-03T10:01:38;42.74;40.53;58.70;;
64077;Laerm;51039;49.696;10.808;2023-04-03T10:04:11;42.73;40.56;54.07;;
64077;Laerm;51039;49.696;10.808;2023-04-03T10:06:40;42.85;40.53;56.32;;
64077;Laerm;51039;49.696;10.808;2023-04-03T10:09:24;42.22;40.43;53.81;;
64077;Laerm;51039;49.696;10.808;2023-04-03T10:12:09;42.62;40.34;59.82;;
64077;Laerm;51039;49.696;10.808;2023-04-03T10:14:39;43.40;40.55;60.12;;
64077;Laerm;51039;49.696;10.808;2023-04-03T10:19:52;43.41;40.36;58.83;;
64077;Laerm;51039;49.696;10.808;2023-04-03T10:22:26;42.16;40.24;54.23;;
64077;Laerm;51039;49.696;10.808;2023-04-03T10:25:08;43.16;40.32;59.97;;
64077;Laerm;51039;49.696;10.808;2023-04-03T10:27:51;42.68;40.39;58.11;;
64077;Laerm;51039;49.696;10.808;2023-04-03T10:30:27;41.95;40.54;47.55;;
64077;Laerm;51039;49.696;10.808;2023-04-03T10:35:44;44.18;40.42;57.51;;
64077;Laerm;51039;49.696;10.808;2023-04-03T10:41:10;42.19;40.30;52.75;;
64077;Laerm;51039;49.696;10.808;2023-04-03T10:43:52;41.96;40.02;52.60;;
64077;Laerm;51039;49.696;10.808;2023-04-03T10:46:26;42.27;39.98;57.57;;
64077;Laerm;51039;49.696;10.808;2023-04-03T10:51:48;41.89;39.99;53.87;;
64077;Laerm;51039;49.696;10.808;2023-04-03T10:57:01;42.48;40.03;57.98;;
64077;Laerm;51039;49.696;10.808;2023-04-03T11:01:59;41.48;40.03;42.99;;
64077;Laerm;51039;49.696;10.808;2023-04-03T11:04:31;41.54;40.09;44.87;;
64077;Laerm;51039;49.696;10.808;2023-04-03T11:07:09;41.64;40.27;47.08;;
64077;Laerm;51039;49.696;10.808;2023-04-03T11:09:40;42.26;40.07;54.27;;
64077;Laerm;51039;49.696;10.808;2023-04-03T11:12:13;41.64;40.11;49.04;;
64077;Laerm;51039;49.696;10.808;2023-04-03T11:14:40;41.84;40.37;51.05;;
64077;Laerm;51039;49.696;10.808;2023-04-03T11:22:39;41.65;40.19;45.94;;
64077;Laerm;51039;49.696;10.808;2023-04-03T11:27:59;42.81;40.29;58.03;;
64077;Laerm;51039;49.696;10.808;2023-04-03T11:36:05;41.68;39.96;46.20;;
64077;Laerm;51039;49.696;10.808;2023-04-03T11:38:38;41.94;40.10;45.20;;
64077;Laerm;51039;49.696;10.808;2023-04-03T11:41:08;42.10;39.97;55.39;;
64077;Laerm;51039;49.696;10.808;2023-04-03T11:43:40;42.46;40.07;57.47;;
64077;Laerm;51039;49.696;10.808;2023-04-03T11:46:07;41.69;39.88;48.57;;
64077;Laerm;51039;49.696;10.808;2023-04-03T11:53:45;41.99;40.46;51.10;;
64077;Laerm;51039;49.696;10.808;2023-04-03T12:04:18;42.15;40.26;51.33;;
64077;Laerm;51039;49.696;10.808;2023-04-03T12:11:52;42.07;40.32;52.77;;
64077;Laerm;51039;49.696;10.808;2023-04-03T12:14:18;41.90;40.45;50.63;;
64077;Laerm;51039;49.696;10.808;2023-04-03T12:16:47;41.97;40.51;47.13;;
64077;Laerm;51039;49.696;10.808;2023-04-03T12:29:50;41.91;40.39;48.88;;
64077;Laerm;51039;49.696;10.808;2023-04-03T12:35:24;42.14;40.40;55.44;;
64077;Laerm;51039;49.696;10.808;2023-04-03T12:43:39;41.96;40.20;45.53;;
64077;Laerm;51039;49.696;10.808;2023-04-03T12:48:38;41.84;40.38;47.05;;
64077;Laerm;51039;49.696;10.808;2023-04-03T12:51:05;42.55;40.25;55.47;;
64077;Laerm;51039;49.696;10.808;2023-04-03T12:53:33;42.07;40.25;47.30;;
64077;Laerm;51039;49.696;10.808;2023-04-03T12:56:25;43.00;40.23;61.56;;
64077;Laerm;51039;49.696;10.808;2023-04-03T12:58:53;42.48;40.47;59.29;;
64077;Laerm;51039;49.696;10.808;2023-04-03T13:01:23;42.06;40.30;52.62;;
64077;Laerm;51039;49.696;10.808;2023-04-03T13:03:52;42.51;40.26;57.13;;
64077;Laerm;51039;49.696;10.808;2023-04-03T13:06:21;42.11;40.33;52.46;;
64077;Laerm;51039;49.696;10.808;2023-04-03T13:08:56;41.78;40.15;56.35;;
64077;Laerm;51039;49.696;10.808;2023-04-03T13:11:27;41.78;40.13;45.62;;
64077;Laerm;51039;49.696;10.808;2023-04-03T13:14:04;41.70;40.12;45.09;;
64077;Laerm;51039;49.696;10.808;2023-04-03T13:16:31;42.56;39.77;56.35;;
64077;Laerm;51039;49.696;10.808;2023-04-03T13:18:57;42.67;40.28;58.46;;
64077;Laerm;51039;49.696;10.808;2023-04-03T13:21:26;42.05;40.14;50.26;;
64077;Laerm;51039;49.696;10.808;2023-04-03T13:23:56;41.65;40.21;53.78;;
64077;Laerm;51039;49.696;10.808;2023-04-03T13:26:25;41.67;39.94;49.08;;
64077;Laerm;51039;49.696;10.808;2023-04-03T13:28:52;41.82;40.11;51.67;;
64077;Laerm;51039;49.696;10.808;2023-04-03T13:31:22;41.66;40.23;48.07;;
64077;Laerm;51039;49.696;10.808;2023-04-03T13:34:29;41.91;40.24;52.68;;
64077;Laerm;51039;49.696;10.808;2023-04-03T13:41:46;41.75;40.24;50.66;;
64077;Laerm;51039;49.696;10.808;2023-04-03T13:46:40;41.76;40.01;48.79;;
64077;Laerm;51039;49.696;10.808;2023-04-03T13:49:39;41.57;39.59;44.57;;
64077;Laerm;51039;49.696;10.808;2023-04-03T13:52:22;41.81;40.17;49.90;;
64077;Laerm;51039;49.696;10.808;2023-04-03T13:54:54;41.72;40.19;51.67;;
64077;Laerm;51039;49.696;10.808;2023-04-03T13:57:20;41.53;40.06;43.73;;
64077;Laerm;51039;49.696;10.808;2023-04-03T13:59:46;41.56;40.08;44.03;;
64077;Laerm;51039;49.696;10.808;2023-04-03T14:07:16;42.39;39.94;58.61;;
64077;Laerm;51039;49.696;10.808;2023-04-03T14:09:43;42.25;40.10;59.15;;
64077;Laerm;51039;49.696;10.808;2023-04-03T14:12:16;41.60;40.08;50.52;;
64077;Laerm;51039;49.696;10.808;2023-04-03T14:14:42;41.72;39.94;57.02;;
64077;Laerm;51039;49.696;10.808;2023-04-03T14:17:18;41.60;39.96;53.18;;
64077;Laerm;51039;49.696;10.808;2023-04-03T14:19:44;41.56;40.10;49.17;;
64077;Laerm;51039;49.696;10.808;2023-04-03T14:22:17;41.69;40.03;51.70;;
64077;Laerm;51039;49.696;10.808;2023-04-03T14:24:44;41.63;39.90;54.49;;
64077;Laerm;51039;49.696;10.808;2023-04-03T14:27:28;41.63;40.11;49.74;;
64077;Laerm;51039;49.696;10.808;2023-04-03T14:29:55;43.77;40.02;62.78;;
64077;Laerm;51039;49.696;10.808;2023-04-03T14:32:23;41.80;39.90;53.45;;
64077;Laerm;51039;49.696;10.808;2023-04-03T14:34:49;41.73;40.02;52.33;;
64077;Laerm;51039;49.696;10.808;2023-04-03T14:37:18;41.62;40.00;47.51;;
64077;Laerm;51039;49.696;10.808;2023-04-03T14:39:44;41.93;39.92;54.21;;
64077;Laerm;51039;49.696;10.808;2023-04-03T14:42:13;41.66;39.99;51.28;;
64077;Laerm;51039;49.696;10.808;2023-04-03T14:44:39;43.47;40.18;58.60;;
64077;Laerm;51039;49.696;10.808;2023-04-03T14:47:04;42.19;40.11;57.11;;
64077;Laerm;51039;49.696;10.808;2023-04-03T14:49:30;41.88;40.12;57.85;;
64077;Laerm;51039;49.696;10.808;2023-04-03T14:51:57;41.72;39.91;54.65;;
64077;Laerm;51039;49.696;10.808;2023-04-03T14:54:23;42.03;40.00;56.98;;
64077;Laerm;51039;49.696;10.808;2023-04-03T14:56:53;41.70;39.98;50.79;;
64077;Laerm;51039;49.696;10.808;2023-04-03T14:59:20;41.57;40.04;45.76;;
64077;Laerm;51039;49.696;10.808;2023-04-03T15:01:46;41.95;40.23;56.37;;
64077;Laerm;51039;49.696;10.808;2023-04-03T15:04:14;42.76;40.03;60.85;;
64077;Laerm;51039;49.696;10.808;2023-04-03T15:06:40;41.91;39.99;52.23;;
64077;Laerm;51039;49.696;10.808;2023-04-03T15:09:18;42.21;39.86;55.93;;
64077;Laerm;51039;49.696;10.808;2023-04-03T15:11:44;41.77;40.14;51.32;;
64077;Laerm;51039;49.696;10.808;2023-04-03T15:14:10;42.64;39.99;59.69;;
64077;Laerm;51039;49.696;10.808;2023-04-03T15:16:35;42.01;39.90;54.50;;
64077;Laerm;51039;49.696;10.808;2023-04-03T15:19:01;41.59;40.05;47.99;;
64077;Laerm;51039;49.696;10.808;2023-04-03T15:21:26;41.68;39.90;56.14;;
64077;Laerm;51039;49.696;10.808;2023-04-03T15:23:52;41.94;40.07;53.61;;
64077;Laerm;51039;49.696;10.808;2023-04-03T15:26:17;42.20;39.91;58.29;;
64077;Laerm;51039;49.696;10.808;2023-04-03T15:28:43;41.51;39.77;52.36;;